Time;durP1;ratioP1;P1;durP2;ratioP2;P2;SDS_P1;SDS_P2;PMS_P1;PMS_P2;Temp;Humidity;BMP_temperature;BMP_pressure;BME280_temperature;BME280_humidity;BME280_pressure;Samples;Min_cycle;Max_cycle;Signal;HPM_P1;HPM_P2
2024/01/09 00:01:45;;;;;;;10.63;5.90;;;-4.10;51.10;;;;;;4981867;28;46175;-68
2024/01/09 00:04:11;;;;;;;9.93;6.20;;;-4.20;50.90;;;;;;4967226;28;46485;-70
2024/01/09 00:06:37;;;;;;;14.55;6.45;;;-4.20;50.40;;;;;;4983811;28;46767;-70
2024/01/09 00:09:02;;;;;;;8.10;4.77;;;-4.10;50.50;;;;;;4984746;28;46701;-69
2024/01/09 00:11:28;;;;;;;13.60;6.90;;;-4.30;49.90;;;;;;4983536;28;47323;-69
2024/01/09 00:13:54;;;;;;;13.77;6.18;;;-4.30;49.20;;;;;;4982283;28;46464;-70
2024/01/09 00:16:20;;;;;;;10.48;6.10;;;-4.30;49.10;;;;;;4965984;28;46345;-69
2024/01/09 00:18:46;;;;;;;12.87;6.90;;;-4.30;48.50;;;;;;4982713;28;46230;-69
2024/01/09 00:21:11;;;;;;;9.33;5.17;;;-4.40;47.90;;;;;;4985801;28;46433;-69
2024/01/09 00:23:37;;;;;;;12.30;5.57;;;-4.40;47.20;;;;;;4963648;28;46492;-70
2024/01/09 00:26:02;;;;;;;11.90;6.10;;;-4.50;46.60;;;;;;4982385;28;46452;-69
2024/01/09 00:28:28;;;;;;;17.67;6.70;;;-4.50;46.30;;;;;;4982521;28;46621;-69
2024/01/09 00:30:54;;;;;;;11.90;5.80;;;-4.60;46.10;;;;;;4984300;28;46103;-69
2024/01/09 00:33:19;;;;;;;16.20;8.27;;;-4.50;46.00;;;;;;4982815;28;46434;-69
2024/01/09 00:35:45;;;;;;;15.33;7.50;;;-4.60;45.80;;;;;;4981893;28;46525;-70
2024/01/09 00:38:11;;;;;;;21.10;8.60;;;-4.70;45.60;;;;;;4983399;28;46381;-68
2024/01/09 00:40:39;;;;;;;14.27;7.13;;;-4.70;45.50;;;;;;4982180;28;47025;-70
2024/01/09 00:43:05;;;;;;;10.45;5.70;;;-4.70;45.50;;;;;;4981419;28;46448;-70
2024/01/09 00:45:30;;;;;;;10.97;6.60;;;-4.70;45.50;;;;;;4981101;28;46401;-69
2024/01/09 00:47:56;;;;;;;12.93;6.63;;;-4.80;45.40;;;;;;4984361;28;46350;-70
2024/01/09 00:50:21;;;;;;;11.40;5.10;;;-4.80;45.40;;;;;;4983591;28;47069;-70
2024/01/09 00:52:47;;;;;;;15.63;7.80;;;-4.80;45.40;;;;;;4982655;28;46683;-71
2024/01/09 00:55:15;;;;;;;14.80;7.80;;;-4.80;45.50;;;;;;4983892;28;45829;-69
2024/01/09 00:57:40;;;;;;;15.02;6.85;;;-4.90;45.30;;;;;;4981848;28;46719;-68
2024/01/09 01:00:06;;;;;;;16.53;8.87;;;-4.90;45.40;;;;;;4981532;28;47027;-70
2024/01/09 01:02:32;;;;;;;17.02;8.85;;;-4.90;45.40;;;;;;4981113;28;46461;-68
2024/01/09 01:04:57;;;;;;;18.90;8.67;;;-4.90;45.40;;;;;;4982011;28;46636;-70
2024/01/09 01:07:23;;;;;;;16.57;7.87;;;-5.00;45.50;;;;;;4982200;28;46461;-70
2024/01/09 01:09:49;;;;;;;15.40;8.40;;;-4.90;45.60;;;;;;4981648;28;46544;-70
2024/01/09 01:12:14;;;;;;;15.23;7.03;;;-5.00;45.60;;;;;;4981573;28;46354;-71
2024/01/09 01:14:40;;;;;;;17.43;8.53;;;-5.00;45.50;;;;;;4981286;28;46445;-70
2024/01/09 01:17:05;;;;;;;14.40;7.93;;;-5.00;45.50;;;;;;4984345;28;46482;-68
2024/01/09 01:19:31;;;;;;;12.50;6.73;;;-5.10;45.50;;;;;;4980719;28;46536;-70
2024/01/09 01:21:56;;;;;;;14.67;7.53;;;-5.10;45.30;;;;;;4979858;28;46420;-70
2024/01/09 01:24:22;;;;;;;16.60;7.60;;;-5.10;45.40;;;;;;4981196;28;46472;-68
2024/01/09 01:26:47;;;;;;;14.90;6.80;;;-5.10;45.30;;;;;;4982941;28;46416;-68
2024/01/09 01:29:13;;;;;;;16.17;8.03;;;-5.10;45.30;;;;;;4966164;28;49296;-70
2024/01/09 01:31:38;;;;;;;15.93;8.07;;;-5.10;45.20;;;;;;4982217;28;46482;-70
2024/01/09 01:34:04;;;;;;;13.83;8.43;;;-5.10;45.10;;;;;;4982339;28;46635;-68
2024/01/09 01:36:30;;;;;;;18.37;8.40;;;-5.10;45.30;;;;;;4981516;28;46964;-70
2024/01/09 01:38:56;;;;;;;15.70;7.18;;;-5.20;45.10;;;;;;4963161;28;47144;-68
2024/01/09 01:41:21;;;;;;;18.93;7.87;;;-5.20;45.10;;;;;;4981678;28;46780;-68
2024/01/09 01:43:47;;;;;;;19.00;9.17;;;-5.20;45.10;;;;;;4980522;28;46206;-70
2024/01/09 01:46:13;;;;;;;18.93;8.17;;;-5.20;44.90;;;;;;4981449;28;46572;-69
2024/01/09 01:48:39;;;;;;;18.30;7.13;;;-5.20;44.80;;;;;;4979654;28;46276;-70
2024/01/09 01:51:05;;;;;;;13.60;6.22;;;-5.20;44.80;;;;;;4981737;28;46519;-68
2024/01/09 01:53:32;;;;;;;17.98;8.82;;;-5.20;44.70;;;;;;4978180;28;46411;-71
2024/01/09 01:55:58;;;;;;;16.73;8.52;;;-5.20;44.70;;;;;;4981959;28;46373;-70
2024/01/09 01:58:27;;;;;;;11.97;5.43;;;-5.20;44.70;;;;;;4982570;28;46817;-70
2024/01/09 02:00:53;;;;;;;21.35;9.45;;;-5.20;44.40;;;;;;4980005;28;46666;-69
2024/01/09 02:03:19;;;;;;;14.95;7.80;;;-5.20;44.50;;;;;;4980281;28;46299;-70
2024/01/09 02:05:46;;;;;;;16.48;6.82;;;-5.10;44.00;;;;;;4982058;28;46334;-69
2024/01/09 02:08:13;;;;;;;16.77;7.75;;;-5.00;43.60;;;;;;4981790;28;46372;-70
2024/01/09 02:10:39;;;;;;;15.20;7.03;;;-4.80;43.00;;;;;;4980827;28;46949;-71
2024/01/09 02:13:05;;;;;;;19.83;8.80;;;-4.70;42.30;;;;;;4982607;28;46500;-69
2024/01/09 02:15:31;;;;;;;17.60;9.50;;;-4.60;41.90;;;;;;4982667;28;46456;-70
2024/01/09 02:17:56;;;;;;;17.73;8.67;;;-4.50;41.50;;;;;;4981930;28;46512;-70
2024/01/09 02:20:23;;;;;;;15.63;8.60;;;-4.50;40.80;;;;;;4982602;28;46477;-71
2024/01/09 02:22:50;;;;;;;17.17;7.85;;;-4.40;40.80;;;;;;4981922;28;46502;-70
2024/01/09 02:25:15;;;;;;;16.00;9.40;;;-4.40;40.90;;;;;;4982140;28;46366;-70
2024/01/09 02:28:14;;;;;;;16.93;8.07;;;-4.40;40.50;;;;;;4978766;28;47180;-69
2024/01/09 02:30:41;;;;;;;11.90;6.90;;;-4.30;40.40;;;;;;4980432;28;46505;-70
2024/01/09 02:33:08;;;;;;;18.20;8.70;;;-4.30;40.40;;;;;;4981547;28;46533;-70
2024/01/09 02:35:34;;;;;;;16.70;6.80;;;-4.30;40.40;;;;;;4981059;28;46358;-69
2024/01/09 02:37:59;;;;;;;20.23;8.80;;;-4.20;40.50;;;;;;4980193;28;47034;-70
2024/01/09 02:40:26;;;;;;;16.27;8.27;;;-4.20;40.50;;;;;;4982315;28;46671;-71
2024/01/09 02:42:52;;;;;;;19.03;9.00;;;-4.30;40.40;;;;;;4981509;28;46766;-68
2024/01/09 02:45:17;;;;;;;13.77;7.20;;;-4.30;40.40;;;;;;4966799;28;46418;-70
2024/01/09 02:47:43;;;;;;;15.90;8.40;;;-4.30;40.40;;;;;;4980315;28;46837;-70
2024/01/09 02:50:09;;;;;;;18.00;9.27;;;-4.40;40.30;;;;;;4968345;28;45817;-70
2024/01/09 02:52:34;;;;;;;16.10;8.60;;;-4.40;40.30;;;;;;4980664;28;46721;-70
2024/01/09 02:55:00;;;;;;;18.00;7.60;;;-4.40;40.30;;;;;;4980371;28;46456;-69
2024/01/09 02:57:25;;;;;;;18.47;9.43;;;-4.30;40.40;;;;;;4982769;28;46934;-69
2024/01/09 02:59:51;;;;;;;17.90;8.30;;;-4.30;40.50;;;;;;4983560;28;46181;-70
2024/01/09 03:02:16;;;;;;;17.30;7.10;;;-4.30;40.40;;;;;;4968989;28;46504;-70
2024/01/09 03:04:42;;;;;;;15.13;6.83;;;-4.30;40.40;;;;;;4985806;28;46430;-70
2024/01/09 03:07:08;;;;;;;19.40;8.27;;;-4.30;40.40;;;;;;4966205;28;46476;-69
2024/01/09 03:09:33;;;;;;;22.87;10.13;;;-4.30;40.40;;;;;;4985009;28;46489;-70
2024/01/09 03:11:59;;;;;;;17.10;8.83;;;-4.30;40.40;;;;;;4983820;28;47132;-69
2024/01/09 03:14:25;;;;;;;19.17;9.30;;;-4.30;40.40;;;;;;4984499;28;46373;-69
2024/01/09 03:16:50;;;;;;;16.87;8.30;;;-4.30;40.40;;;;;;4984001;28;47262;-70
2024/01/09 03:19:16;;;;;;;24.63;11.10;;;-4.30;40.40;;;;;;4984428;28;46736;-69
2024/01/09 03:21:42;;;;;;;21.57;9.90;;;-4.20;40.50;;;;;;4970005;28;46549;-69
2024/01/09 03:24:07;;;;;;;15.67;8.63;;;-4.20;40.40;;;;;;4984840;28;46345;-70
2024/01/09 03:26:33;;;;;;;19.10;9.03;;;-4.20;40.50;;;;;;4982847;28;47183;-70
2024/01/09 03:28:59;;;;;;;21.43;9.77;;;-4.20;40.50;;;;;;4984787;28;46459;-70
2024/01/09 03:31:25;;;;;;;18.80;10.55;;;-4.20;40.50;;;;;;4983890;28;46607;-69
2024/01/09 03:33:51;;;;;;;18.60;9.07;;;-4.20;40.50;;;;;;4984627;28;46968;-70
2024/01/09 03:36:17;;;;;;;14.23;7.40;;;-4.20;40.70;;;;;;4984579;28;47179;-70
2024/01/09 03:38:44;;;;;;;18.73;9.40;;;-4.20;40.60;;;;;;4985448;28;46178;-70
2024/01/09 03:41:10;;;;;;;16.38;7.97;;;-4.20;41.20;;;;;;4984233;28;46668;-70
2024/01/09 03:43:36;;;;;;;18.83;9.90;;;-4.10;41.10;;;;;;4980074;28;46394;-69
2024/01/09 03:46:02;;;;;;;21.53;10.50;;;-4.10;41.10;;;;;;4982087;28;46291;-69
2024/01/09 03:48:28;;;;;;;20.30;9.60;;;-4.00;41.10;;;;;;4983425;28;46742;-69
2024/01/09 03:50:54;;;;;;;20.60;9.30;;;-4.00;41.10;;;;;;4983172;28;45888;-70
2024/01/09 03:53:19;;;;;;;20.80;10.02;;;-4.10;42.60;;;;;;4983809;28;46511;-70
2024/01/09 03:55:45;;;;;;;20.87;10.67;;;-4.10;41.50;;;;;;4965974;28;46623;-69
2024/01/09 03:58:12;;;;;;;20.38;9.90;;;-4.10;41.50;;;;;;4983692;28;46409;-69
2024/01/09 04:00:38;;;;;;;18.67;8.32;;;-4.00;41.60;;;;;;4984666;28;45897;-67
2024/01/09 04:03:04;;;;;;;24.98;10.48;;;-4.00;41.70;;;;;;4981658;28;46546;-70
2024/01/09 04:05:29;;;;;;;17.05;9.00;;;-4.10;41.80;;;;;;4986184;28;47054;-68
2024/01/09 04:07:55;;;;;;;15.90;8.77;;;-4.10;42.00;;;;;;4983718;28;46456;-69
2024/01/09 04:10:21;;;;;;;22.43;9.53;;;-4.10;42.20;;;;;;4983921;28;46746;-69
2024/01/09 04:12:46;;;;;;;17.60;9.37;;;-4.10;42.30;;;;;;4984590;28;46143;-69
2024/01/09 04:15:12;;;;;;;14.57;6.97;;;-4.20;42.80;;;;;;4982731;28;46424;-69
2024/01/09 04:17:38;;;;;;;22.52;8.93;;;-4.30;43.00;;;;;;4984335;28;46576;-69
2024/01/09 04:20:05;;;;;;;20.40;9.68;;;-4.30;43.10;;;;;;4985270;28;46717;-69
2024/01/09 04:22:30;;;;;;;15.60;8.88;;;-4.20;43.30;;;;;;4983897;28;46467;-69
2024/01/09 04:24:56;;;;;;;16.07;9.30;;;-4.20;43.30;;;;;;4981955;28;47401;-69
2024/01/09 04:27:22;;;;;;;15.90;9.17;;;-4.20;43.30;;;;;;4984064;28;46929;-70
2024/01/09 04:29:47;;;;;;;20.10;9.70;;;-4.30;43.40;;;;;;4983901;28;46494;-69
2024/01/09 04:32:13;;;;;;;18.67;9.40;;;-4.30;43.50;;;;;;4981989;28;46672;-70
2024/01/09 04:34:39;;;;;;;18.23;10.00;;;-4.20;43.60;;;;;;4982295;28;46192;-69
2024/01/09 04:37:04;;;;;;;18.20;7.33;;;-4.30;43.60;;;;;;4983185;28;46248;-69
2024/01/09 04:39:30;;;;;;;16.77;7.73;;;-4.30;43.70;;;;;;4981891;28;46429;-69
2024/01/09 04:41:56;;;;;;;17.37;9.23;;;-4.20;43.80;;;;;;4981883;28;46336;-69
2024/01/09 04:44:22;;;;;;;22.00;9.03;;;-4.30;43.90;;;;;;4981616;28;47104;-69
2024/01/09 04:46:47;;;;;;;15.53;7.67;;;-4.30;44.00;;;;;;4982617;28;46351;-69
2024/01/09 04:49:13;;;;;;;15.80;7.57;;;-4.30;44.30;;;;;;4982608;28;46751;-69
2024/01/09 04:51:40;;;;;;;12.70;7.10;;;-4.40;44.40;;;;;;4981533;28;46369;-69
2024/01/09 04:54:05;;;;;;;15.48;8.07;;;-4.40;44.70;;;;;;4979548;28;46025;-69
2024/01/09 04:56:31;;;;;;;18.67;7.90;;;-4.30;44.80;;;;;;4983804;28;46520;-69
2024/01/09 04:58:57;;;;;;;15.90;8.37;;;-4.30;44.60;;;;;;4981739;28;46521;-69
2024/01/09 05:01:22;;;;;;;14.80;7.07;;;-4.30;44.80;;;;;;4982566;28;45920;-69
2024/01/09 05:03:49;;;;;;;19.73;9.40;;;-4.30;44.80;;;;;;4982843;28;46525;-70
2024/01/09 05:06:16;;;;;;;20.50;8.27;;;-4.30;44.90;;;;;;4981336;28;46475;-69
2024/01/09 05:08:42;;;;;;;14.55;7.55;;;-4.30;44.80;;;;;;4981301;28;46472;-69
2024/01/09 05:11:07;;;;;;;23.77;10.40;;;-4.30;45.00;;;;;;4983505;28;45874;-70
2024/01/09 05:13:33;;;;;;;16.67;7.67;;;-4.30;44.90;;;;;;4981418;28;46675;-69
2024/01/09 05:15:58;;;;;;;17.50;9.37;;;-4.30;45.00;;;;;;4965172;28;46406;-68
2024/01/09 05:18:25;;;;;;;18.53;9.30;;;-4.40;45.10;;;;;;4981702;28;45774;-67
2024/01/09 05:20:50;;;;;;;18.45;7.60;;;-4.30;44.90;;;;;;4983503;28;45931;-69
2024/01/09 05:23:16;;;;;;;18.40;9.30;;;-4.30;44.80;;;;;;4980469;28;47254;-68
2024/01/09 05:25:42;;;;;;;19.07;9.53;;;-4.40;45.00;;;;;;4983928;28;46372;-68
2024/01/09 05:28:07;;;;;;;14.03;8.00;;;-4.40;44.80;;;;;;4985973;28;46588;-67
2024/01/09 05:30:33;;;;;;;17.60;7.73;;;-4.40;44.50;;;;;;4982779;28;46547;-70
2024/01/09 05:32:58;;;;;;;17.10;9.53;;;-4.40;44.80;;;;;;4981844;28;46087;-70
2024/01/09 05:35:24;;;;;;;21.73;9.40;;;-4.40;44.80;;;;;;4979777;28;46108;-68
2024/01/09 05:37:50;;;;;;;21.43;9.90;;;-4.40;44.60;;;;;;4982664;28;46412;-70
2024/01/09 05:40:16;;;;;;;16.63;8.80;;;-4.40;45.90;;;;;;4982918;28;46687;-67
2024/01/09 05:42:43;;;;;;;22.98;10.38;;;-4.40;44.60;;;;;;4978145;28;46026;-68
2024/01/09 05:45:10;;;;;;;15.35;9.82;;;-4.40;45.50;;;;;;4968291;28;46328;-69
2024/01/09 05:47:36;;;;;;;15.77;8.18;;;-4.40;44.20;;;;;;4954081;28;46498;-69
2024/01/09 05:50:01;;;;;;;19.77;9.40;;;-4.40;44.30;;;;;;4965167;28;46870;-70
2024/01/09 05:52:27;;;;;;;18.00;6.57;;;-4.40;44.10;;;;;;4963149;28;46573;-73
2024/01/09 05:54:53;;;;;;;18.20;8.43;;;-4.50;44.20;;;;;;4965226;28;46430;-69
2024/01/09 05:57:18;;;;;;;16.80;9.30;;;-4.60;44.20;;;;;;4965188;28;46486;-71
2024/01/09 05:59:44;;;;;;;19.57;8.60;;;-4.60;44.30;;;;;;4959243;28;46657;-70
2024/01/09 06:02:10;;;;;;;20.55;11.20;;;-4.60;44.30;;;;;;4962636;28;46598;-69
2024/01/09 06:04:35;;;;;;;23.93;10.70;;;-4.60;44.10;;;;;;4964375;28;46532;-68
2024/01/09 06:07:01;;;;;;;19.80;9.00;;;-4.60;44.20;;;;;;4964406;28;46387;-70
2024/01/09 06:09:27;;;;;;;17.33;9.33;;;-4.60;44.10;;;;;;4966576;28;46684;-69
2024/01/09 06:11:52;;;;;;;16.77;7.47;;;-4.60;44.10;;;;;;4966050;28;46469;-68
2024/01/09 06:14:18;;;;;;;21.43;9.90;;;-4.60;45.10;;;;;;4964335;28;46854;-70
2024/01/09 06:16:43;;;;;;;16.00;8.60;;;-4.70;43.90;;;;;;4964134;28;46475;-68
2024/01/09 06:19:09;;;;;;;15.50;7.97;;;-4.70;44.20;;;;;;4965120;28;46511;-70
2024/01/09 06:21:35;;;;;;;20.30;10.27;;;-4.70;44.10;;;;;;4948117;28;47186;-69
2024/01/09 06:24:00;;;;;;;20.80;10.00;;;-4.70;44.00;;;;;;4963652;28;46819;-69
2024/01/09 06:26:26;;;;;;;14.50;6.43;;;-4.80;45.30;;;;;;4965704;28;46498;-69
2024/01/09 06:28:51;;;;;;;16.13;8.73;;;-4.80;44.10;;;;;;4968437;28;46474;-71
2024/01/09 06:31:17;;;;;;;18.93;9.53;;;-4.80;44.10;;;;;;4966418;28;46441;-70
2024/01/09 06:33:42;;;;;;;17.80;8.10;;;-4.80;44.20;;;;;;4966455;28;46463;-70
2024/01/09 06:36:08;;;;;;;20.10;8.90;;;-4.80;44.30;;;;;;4963569;28;46556;-70
2024/01/09 06:38:34;;;;;;;19.93;9.60;;;-4.80;44.10;;;;;;4968373;28;46395;-70
2024/01/09 06:40:59;;;;;;;22.53;10.97;;;-4.80;44.10;;;;;;4967108;28;46410;-69
2024/01/09 06:43:25;;;;;;;11.33;6.97;;;-4.70;43.80;;;;;;4964839;28;46808;-69
2024/01/09 06:45:51;;;;;;;23.30;9.37;;;-4.70;43.60;;;;;;4968138;28;46387;-70
2024/01/09 06:48:16;;;;;;;15.20;8.17;;;-4.80;43.60;;;;;;4952083;28;46471;-70
2024/01/09 06:50:42;;;;;;;19.30;9.37;;;-4.80;43.70;;;;;;4965671;28;47196;-70
2024/01/09 06:53:07;;;;;;;22.03;8.57;;;-4.80;43.80;;;;;;4964984;28;46431;-70
2024/01/09 06:55:33;;;;;;;23.77;10.70;;;-4.70;43.80;;;;;;4965653;28;46664;-69
2024/01/09 06:57:59;;;;;;;20.43;8.63;;;-4.80;43.70;;;;;;4965165;28;46452;-71
2024/01/09 07:00:24;;;;;;;20.00;9.13;;;-4.80;43.50;;;;;;4966603;28;46929;-70
2024/01/09 07:02:50;;;;;;;25.23;8.33;;;-4.80;43.40;;;;;;4964718;28;46375;-70
2024/01/09 07:05:16;;;;;;;17.90;10.60;;;-4.80;43.20;;;;;;4964946;28;46225;-70
2024/01/09 07:07:42;;;;;;;18.00;9.40;;;-4.80;43.10;;;;;;4965239;28;46462;-70
2024/01/09 07:10:08;;;;;;;18.95;8.63;;;-4.80;43.00;;;;;;4965290;28;47110;-70
2024/01/09 07:12:34;;;;;;;23.08;11.18;;;-4.80;42.90;;;;;;4964486;28;46533;-69
2024/01/09 07:15:00;;;;;;;17.30;7.72;;;-4.80;42.70;;;;;;4966436;28;46742;-71
2024/01/09 07:17:25;;;;;;;21.40;9.57;;;-4.90;42.60;;;;;;4966114;28;46420;-69
2024/01/09 07:19:51;;;;;;;21.17;9.13;;;-4.80;42.70;;;;;;4965677;28;47484;-70
2024/01/09 07:22:17;;;;;;;18.07;10.17;;;-4.80;42.50;;;;;;4964180;28;46435;-68
2024/01/09 07:24:42;;;;;;;20.10;9.80;;;-4.70;42.40;;;;;;4965557;28;46533;-68
2024/01/09 07:27:08;;;;;;;17.13;9.57;;;-4.70;42.20;;;;;;4968331;28;46644;-70
2024/01/09 07:29:33;;;;;;;21.37;9.73;;;-4.70;42.20;;;;;;4961901;28;46430;-68
2024/01/09 07:31:59;;;;;;;22.50;9.27;;;-4.70;42.20;;;;;;4966429;28;45888;-68
2024/01/09 07:34:24;;;;;;;18.80;9.87;;;-4.80;42.00;;;;;;4965709;28;46465;-70
2024/01/09 07:36:50;;;;;;;25.53;11.27;;;-4.80;42.20;;;;;;4966937;28;46532;-69
2024/01/09 07:39:16;;;;;;;22.50;9.50;;;-4.80;42.40;;;;;;4965500;28;46739;-70
2024/01/09 07:41:41;;;;;;;22.37;11.17;;;-4.80;42.30;;;;;;4963394;28;46473;-70
2024/01/09 07:44:07;;;;;;;19.03;8.70;;;-4.80;42.20;;;;;;4967098;28;46975;-70
2024/01/09 07:46:33;;;;;;;24.23;10.50;;;-4.80;42.30;;;;;;4964797;28;46394;-70
2024/01/09 07:48:58;;;;;;;19.60;9.50;;;-4.80;42.50;;;;;;4967861;28;46590;-70
2024/01/09 07:51:24;;;;;;;22.70;10.03;;;-4.70;42.00;;;;;;4967320;28;46413;-69
2024/01/09 07:53:49;;;;;;;19.97;10.37;;;-4.80;42.00;;;;;;4966637;28;46515;-70
2024/01/09 07:56:17;;;;;;;26.13;9.40;;;-4.60;41.90;;;;;;4968384;28;46471;-69
2024/01/09 07:58:43;;;;;;;17.63;8.27;;;-4.60;41.60;;;;;;4968575;28;47049;-70
2024/01/09 08:01:10;;;;;;;25.17;12.00;;;-4.60;41.20;;;;;;4966221;28;46679;-70
2024/01/09 08:03:36;;;;;;;24.17;12.02;;;-4.60;41.10;;;;;;4966518;28;46462;-70
2024/01/09 08:06:01;;;;;;;34.13;15.47;;;-4.60;41.10;;;;;;4967778;28;46438;-70
2024/01/09 08:08:27;;;;;;;35.47;16.47;;;-4.60;41.00;;;;;;4968532;28;46397;-70
2024/01/09 08:10:52;;;;;;;40.30;19.70;;;-4.50;40.70;;;;;;4969629;28;46481;-70
2024/01/09 08:13:18;;;;;;;16.70;7.27;;;-4.60;40.60;;;;;;4969454;28;46516;-69
2024/01/09 08:15:44;;;;;;;29.07;13.60;;;-4.60;40.50;;;;;;4968070;28;46275;-70
2024/01/09 08:18:09;;;;;;;15.23;7.13;;;-4.70;40.70;;;;;;4970571;28;46580;-70
2024/01/09 08:20:35;;;;;;;16.43;8.30;;;-4.60;40.20;;;;;;4966366;28;46367;-71
2024/01/09 08:23:00;;;;;;;24.10;12.27;;;-4.50;40.20;;;;;;4969860;28;46465;-68
2024/01/09 08:25:26;;;;;;;19.30;9.20;;;-4.50;40.20;;;;;;4966610;28;46742;-70
2024/01/09 08:27:51;;;;;;;16.67;8.80;;;-4.40;40.30;;;;;;4966654;28;46492;-71
2024/01/09 08:30:17;;;;;;;17.77;10.10;;;-4.40;40.40;;;;;;4969597;28;46753;-76
2024/01/09 08:32:43;;;;;;;16.20;7.10;;;-4.40;40.30;;;;;;4972344;28;46495;-73
2024/01/09 08:35:08;;;;;;;19.30;8.97;;;-4.40;40.30;;;;;;4970042;28;46307;-76
2024/01/09 08:37:34;;;;;;;16.57;8.40;;;-4.40;39.90;;;;;;4971711;28;47179;-73
2024/01/09 08:39:59;;;;;;;14.27;7.57;;;-4.50;40.00;;;;;;4972495;28;46431;-74
2024/01/09 08:42:25;;;;;;;22.73;10.60;;;-4.50;39.60;;;;;;4965806;28;46826;-74
2024/01/09 08:44:50;;;;;;;16.50;8.93;;;-4.40;39.40;;;;;;4968534;28;46434;-76
2024/01/09 08:47:16;;;;;;;17.90;9.80;;;-4.40;38.90;;;;;;4970675;28;46702;-74
2024/01/09 08:49:43;;;;;;;12.00;6.27;;;-4.40;38.80;;;;;;4971733;28;46441;-75
2024/01/09 08:52:09;;;;;;;17.85;10.23;;;-4.30;38.40;;;;;;4965651;28;46534;-76
2024/01/09 08:54:34;;;;;;;19.07;8.87;;;-4.40;39.10;;;;;;4971401;28;46594;-76
2024/01/09 08:57:00;;;;;;;17.37;9.23;;;-4.40;37.80;;;;;;4969087;28;46468;-75
2024/01/09 08:59:26;;;;;;;18.80;9.40;;;-4.40;38.00;;;;;;4969849;28;46454;-75
2024/01/09 09:01:51;;;;;;;16.43;8.17;;;-4.40;37.90;;;;;;4969029;28;46892;-76
2024/01/09 09:04:17;;;;;;;24.07;10.50;;;-4.40;37.80;;;;;;4971416;28;46780;-75
2024/01/09 09:06:43;;;;;;;18.47;8.77;;;-4.30;37.80;;;;;;4969975;28;46392;-74
2024/01/09 09:09:09;;;;;;;15.82;8.05;;;-4.20;37.30;;;;;;4968984;28;46620;-75
2024/01/09 09:11:35;;;;;;;18.20;9.10;;;-4.30;36.50;;;;;;4973740;28;46430;-75
2024/01/09 09:14:00;;;;;;;21.02;10.60;;;-4.30;36.50;;;;;;4978986;28;46462;-75
2024/01/09 09:16:29;;;;;;;12.67;6.07;;;-4.30;36.70;;;;;;4972229;28;47029;-75
2024/01/09 09:18:54;;;;;;;19.17;8.48;;;-4.20;36.40;;;;;;4969075;28;46490;-75
2024/01/09 09:21:20;;;;;;;17.30;7.67;;;-4.20;35.90;;;;;;4969957;28;45793;-77
2024/01/09 09:23:46;;;;;;;16.70;8.43;;;-4.20;35.60;;;;;;4974642;28;46385;-75
2024/01/09 09:26:12;;;;;;;23.10;10.50;;;-4.10;35.60;;;;;;4973133;28;46626;-75
2024/01/09 09:28:37;;;;;;;20.40;9.48;;;-4.10;35.50;;;;;;4977355;28;46684;-75
2024/01/09 09:31:03;;;;;;;13.80;7.10;;;-4.00;35.20;;;;;;4952615;28;46928;-75
2024/01/09 09:33:31;;;;;;;15.93;8.30;;;-4.00;34.80;;;;;;4969031;28;45810;-75
2024/01/09 09:35:57;;;;;;;22.48;10.23;;;-4.10;34.50;;;;;;4982775;23;47481;-71
2024/01/09 09:38:24;;;;;;;14.63;7.22;;;-4.10;34.40;;;;;;4976547;28;46541;-69
2024/01/09 09:40:50;;;;;;;17.13;8.57;;;-4.00;34.20;;;;;;4978551;28;46437;-70
2024/01/09 09:43:24;;;;;;;16.13;6.95;;;-4.10;33.30;;;;;;4987305;28;46579;-70
2024/01/09 09:45:55;;;;;;;19.55;9.68;;;-4.20;32.70;;;;;;4996406;28;47331;-70
2024/01/09 09:48:23;;;;;;;17.55;9.10;;;-4.20;33.00;;;;;;4977936;28;46593;-70
2024/01/09 09:50:52;;;;;;;20.42;9.50;;;-4.20;32.80;;;;;;4996200;28;46489;-70
2024/01/09 09:53:18;;;;;;;15.68;8.40;;;-4.10;32.40;;;;;;4995879;28;46737;-70
2024/01/09 09:55:45;;;;;;;23.42;10.73;;;-3.90;31.80;;;;;;4994993;28;46459;-69
2024/01/09 09:58:11;;;;;;;20.52;10.57;;;-4.00;31.60;;;;;;4995912;28;46718;-70
2024/01/09 10:00:36;;;;;;;19.17;9.60;;;-4.00;31.50;;;;;;4996719;28;46331;-70
2024/01/09 10:03:08;;;;;;;25.17;9.50;;;-4.00;31.10;;;;;;4996695;28;46453;-70
2024/01/09 10:05:38;;;;;;;18.30;8.30;;;-4.00;31.30;;;;;;4995646;28;46999;-70
2024/01/09 10:08:07;;;;;;;18.65;9.73;;;-4.00;31.10;;;;;;4996421;28;46493;-70
2024/01/09 10:10:33;;;;;;;17.98;8.07;;;-3.90;30.70;;;;;;4994999;28;46440;-70
2024/01/09 10:12:59;;;;;;;18.30;7.67;;;-3.90;30.90;;;;;;4978711;28;46358;-70
2024/01/09 10:15:25;;;;;;;23.90;11.00;;;-4.00;30.70;;;;;;4995244;28;46448;-70
2024/01/09 10:17:52;;;;;;;16.07;7.67;;;-4.00;30.70;;;;;;4995858;28;46392;-70
2024/01/09 10:20:17;;;;;;;20.50;9.93;;;-3.90;30.20;;;;;;4996712;28;46506;-70
2024/01/09 10:22:43;;;;;;;17.67;8.13;;;-3.80;30.00;;;;;;4996943;28;46591;-70
2024/01/09 10:25:13;;;;;;;16.67;9.17;;;-3.60;30.10;;;;;;4996550;28;46761;-70
2024/01/09 10:27:40;;;;;;;18.70;9.18;;;-3.50;29.30;;;;;;4995830;28;46457;-70
2024/01/09 10:30:08;;;;;;;17.83;8.60;;;-3.50;29.00;;;;;;4995278;28;46371;-70
2024/01/09 10:32:36;;;;;;;18.25;8.70;;;-3.50;28.50;;;;;;4994391;28;46477;-70
2024/01/09 10:35:03;;;;;;;18.20;7.95;;;-3.50;29.10;;;;;;4994994;28;46763;-69
2024/01/09 10:37:30;;;;;;;17.83;8.63;;;-3.60;28.90;;;;;;4994104;28;46772;-70
2024/01/09 10:39:56;;;;;;;11.88;6.65;;;-3.70;28.90;;;;;;4995425;28;46350;-70
2024/01/09 10:42:21;;;;;;;20.47;10.27;;;-3.70;29.20;;;;;;4995803;28;46494;-69
2024/01/09 10:44:47;;;;;;;24.00;10.93;;;-3.70;29.30;;;;;;4987613;28;47069;-70
2024/01/09 10:47:14;;;;;;;22.37;11.27;;;-3.70;29.30;;;;;;4994876;28;46476;-70
2024/01/09 10:49:41;;;;;;;22.23;10.65;;;-3.90;29.50;;;;;;4993439;28;45873;-71
2024/01/09 10:52:16;;;;;;;19.38;11.13;;;-4.10;30.00;;;;;;4995357;28;45960;-71
2024/01/09 10:54:43;;;;;;;20.60;9.52;;;-4.30;30.70;;;;;;4994543;28;48014;-70
2024/01/09 10:57:14;;;;;;;18.75;9.80;;;-4.50;31.10;;;;;;4995115;28;46634;-70
2024/01/09 10:59:42;;;;;;;21.17;9.50;;;-4.40;31.30;;;;;;4995257;28;46796;-71
2024/01/09 11:02:21;;;;;;;18.60;9.70;;;-4.30;31.60;;;;;;4993516;28;46410;-71
2024/01/09 11:04:48;;;;;;;18.80;10.63;;;-4.40;31.50;;;;;;4993764;28;46557;-71
2024/01/09 11:07:15;;;;;;;19.50;10.40;;;-4.40;31.60;;;;;;4997141;28;46818;-69
2024/01/09 11:09:44;;;;;;;17.08;8.32;;;-4.50;32.20;;;;;;4996116;28;46494;-69
2024/01/09 11:12:13;;;;;;;20.63;10.23;;;-4.60;32.40;;;;;;4994742;28;46597;-69
2024/01/09 11:14:40;;;;;;;14.23;7.68;;;-4.60;32.30;;;;;;4993234;28;46434;-72
2024/01/09 11:17:08;;;;;;;23.73;10.82;;;-4.60;32.30;;;;;;4995693;28;46369;-70
2024/01/09 11:19:36;;;;;;;21.73;10.07;;;-4.60;32.60;;;;;;4995904;28;46481;-71
2024/01/09 11:22:22;;;;;;;18.17;9.32;;;-4.60;32.40;;;;;;4998020;28;46395;-71
2024/01/09 11:24:55;;;;;;;18.95;9.00;;;-4.60;33.70;;;;;;4998295;28;46468;-69
2024/01/09 11:27:21;;;;;;;20.80;9.70;;;-4.60;32.60;;;;;;4998668;28;46474;-71
2024/01/09 11:29:48;;;;;;;13.50;6.73;;;-4.60;32.70;;;;;;4998372;28;46554;-70
2024/01/09 11:32:15;;;;;;;19.08;8.13;;;-4.60;32.50;;;;;;4998582;28;46519;-70
2024/01/09 11:35:03;;;;;;;19.63;8.48;;;-4.60;32.90;;;;;;4996663;28;47968;-69
2024/01/09 11:37:29;;;;;;;23.85;9.30;;;-4.60;32.80;;;;;;4983528;28;46175;-69
2024/01/09 11:39:58;;;;;;;22.45;10.73;;;-4.60;33.10;;;;;;4998043;28;46443;-70
2024/01/09 11:42:24;;;;;;;19.00;9.50;;;-4.60;33.00;;;;;;4998159;28;46521;-71
2024/01/09 11:44:50;;;;;;;21.42;11.55;;;-4.60;33.20;;;;;;4998355;28;46545;-70
2024/01/09 11:47:15;;;;;;;20.40;9.17;;;-4.40;33.00;;;;;;4998280;28;46637;-70
2024/01/09 11:49:42;;;;;;;17.10;6.90;;;-4.40;32.90;;;;;;4998946;28;46516;-70
2024/01/09 11:52:09;;;;;;;19.08;10.48;;;-4.20;33.00;;;;;;4998682;28;46420;-69
2024/01/09 11:54:34;;;;;;;24.27;10.68;;;-4.20;32.90;;;;;;4997928;28;46457;-70
2024/01/09 11:57:00;;;;;;;18.93;8.77;;;-4.00;32.80;;;;;;4997561;28;46526;-71
2024/01/09 11:59:25;;;;;;;16.70;7.73;;;-3.90;32.40;;;;;;4997454;28;46426;-71
2024/01/09 12:01:51;;;;;;;18.03;9.27;;;-3.90;32.30;;;;;;4996984;28;46505;-70
2024/01/09 12:04:17;;;;;;;22.10;10.45;;;-3.80;32.10;;;;;;4996655;28;46652;-69
2024/01/09 12:06:43;;;;;;;21.57;9.90;;;-3.70;33.30;;;;;;4995413;28;46824;-69
2024/01/09 12:09:12;;;;;;;20.90;9.68;;;-3.60;32.10;;;;;;4999587;28;46452;-70
2024/01/09 12:11:37;;;;;;;18.75;9.60;;;-3.40;32.00;;;;;;4999070;28;46441;-71
2024/01/09 12:14:04;;;;;;;18.57;10.27;;;-3.30;32.10;;;;;;4999190;28;46425;-70
2024/01/09 12:16:30;;;;;;;17.70;9.35;;;-3.30;31.70;;;;;;4996920;28;46682;-71
2024/01/09 12:18:57;;;;;;;21.70;10.32;;;-3.20;31.30;;;;;;4996671;28;46503;-71
2024/01/09 12:21:25;;;;;;;19.77;9.77;;;-3.30;31.20;;;;;;4996118;28;46543;-70
2024/01/09 12:23:55;;;;;;;18.08;9.45;;;-3.20;31.20;;;;;;4997824;28;45979;-70
2024/01/09 12:26:22;;;;;;;16.58;9.40;;;-3.10;31.20;;;;;;4996084;28;46397;-71
2024/01/09 12:28:48;;;;;;;18.13;9.77;;;-3.10;30.80;;;;;;4995889;28;46609;-71
2024/01/09 12:31:17;;;;;;;19.45;10.15;;;-3.00;31.80;;;;;;4996963;28;46557;-70